createdAt,value
2018-02-25T00:01:20.796Z,81.21
2018-02-25T00:02:51.577Z,80.59
2018-02-25T00:04:14.553Z,80.23
2018-02-25T00:05:45.365Z,79.80
2018-02-25T00:07:12.494Z,79.52
2018-02-25T00:08:39.502Z,79.42
2018-02-25T00:10:02.473Z,79.23
2018-02-25T00:11:33.342Z,79.51
2018-02-25T00:13:00.375Z,79.56
2018-02-25T00:14:27.409Z,79.58
2018-02-25T00:15:50.202Z,79.52
2018-02-25T00:17:21.187Z,79.19
2018-02-25T00:18:48.284Z,78.57
2018-02-25T00:20:11.154Z,77.97
2018-02-25T00:21:38.201Z,78.14
2018-02-25T00:23:09.160Z,78.57
2018-02-25T00:24:32.165Z,78.34
2018-02-25T00:26:03.094Z,78.69
2018-02-25T00:27:30.171Z,78.97
2018-02-25T00:28:57.232Z,78.50
2018-02-25T00:30:20.209Z,78.17
2018-02-25T00:31:51.103Z,78.03
2018-02-25T00:33:14.011Z,78.07
2018-02-25T00:34:40.838Z,78.52
2018-02-25T00:36:07.747Z,78.71
2018-02-25T00:37:34.575Z,78.86
2018-02-25T00:39:05.408Z,78.59
2018-02-25T00:40:32.352Z,78.34
2018-02-25T00:41:59.220Z,78.38
2018-02-25T00:43:26.331Z,78.52
2018-02-25T00:46:20.304Z,78.63
2018-02-25T00:47:43.451Z,78.76
2018-02-25T00:49:10.540Z,78.42
2018-02-25T00:50:41.458Z,78.31
2018-02-25T00:52:08.476Z,78.09
2018-02-25T00:53:35.612Z,78.09
2018-02-25T00:55:02.319Z,78.58
2018-02-25T00:56:25.243Z,78.93
2018-02-25T00:57:52.100Z,79.33
2018-02-25T00:59:18.999Z,78.88
2018-02-25T01:00:50.014Z,79.17
2018-02-25T01:02:17.079Z,79.44
2018-02-25T01:03:44.024Z,79.27
2018-02-25T01:05:11.135Z,79.34
2018-02-25T01:06:34.208Z,79.64
2018-02-25T01:08:05.255Z,80.05
2018-02-25T01:09:28.159Z,80.32
2018-02-25T01:10:59.068Z,80.93
2018-02-25T01:12:26.104Z,80.95
2018-02-25T01:13:53.052Z,80.92
2018-02-25T01:15:19.842Z,81.14
2018-02-25T01:16:46.998Z,81.00
2018-02-25T01:18:14.036Z,80.71
2018-02-25T01:19:37.023Z,80.17
2018-02-25T01:21:07.863Z,79.70
2018-02-25T01:22:30.812Z,79.09
2018-02-25T01:23:57.728Z,78.96
2018-02-25T01:25:24.495Z,79.02
2018-02-25T01:26:51.420Z,79.09
2018-02-25T01:28:22.199Z,79.06
2018-02-25T01:29:45.322Z,79.26
2018-02-25T01:31:16.450Z,79.28
2018-02-25T01:32:43.336Z,79.34
2018-02-25T01:34:06.264Z,79.38
2018-02-25T01:35:33.132Z,79.38
2018-02-25T01:37:04.150Z,79.54
2018-02-25T01:38:31.210Z,79.15
2018-02-25T01:39:54.200Z,78.71
2018-02-25T01:41:21.208Z,78.62
2018-02-25T01:42:52.044Z,78.72
2018-02-25T01:44:15.274Z,78.94
2018-02-25T01:45:42.389Z,78.64
2018-02-25T01:47:09.351Z,78.18
2018-02-25T01:48:40.347Z,77.97
2018-02-25T01:50:07.214Z,78.37
2018-02-25T01:51:34.080Z,78.78
2018-02-25T01:52:56.968Z,78.65
2018-02-25T01:54:27.970Z,78.08
2018-02-25T01:55:55.091Z,77.73
2018-02-25T01:57:22.139Z,77.59
2018-02-25T01:58:45.267Z,77.52
2018-02-25T02:00:12.481Z,77.40
2018-02-25T02:01:43.356Z,77.73
2018-02-25T02:03:06.435Z,78.11
2018-02-25T02:04:37.364Z,78.15
2018-02-25T02:06:00.345Z,77.63
2018-02-25T02:07:27.087Z,77.53
2018-02-25T02:08:57.929Z,77.58
2018-02-25T02:10:20.921Z,77.69
2018-02-25T02:11:51.784Z,77.66
2018-02-25T02:13:18.723Z,77.57
2018-02-25T02:14:45.860Z,77.66
2018-02-25T02:16:12.950Z,77.67
2018-02-25T02:17:39.823Z,77.37
2018-02-25T02:19:06.763Z,77.03
2018-02-25T02:20:33.746Z,76.81
2018-02-25T02:22:00.938Z,76.54
2018-02-25T02:23:28.042Z,76.44
2018-02-25T02:24:54.855Z,76.48
2018-02-25T02:26:17.994Z,76.40
2018-02-25T02:27:48.630Z,76.22
2018-02-25T02:29:15.534Z,76.63
2018-02-25T02:30:38.533Z,76.90
2018-02-25T02:32:05.405Z,77.14
2018-02-25T02:33:36.426Z,77.21
2018-02-25T02:34:59.289Z,77.38
2018-02-25T02:36:30.131Z,76.98
2018-02-25T02:37:57.152Z,76.80
2018-02-25T02:39:24.157Z,76.89
2018-02-25T02:40:51.160Z,76.21
2018-02-25T02:42:18.144Z,75.97
2018-02-25T02:43:44.985Z,75.91
2018-02-25T02:45:11.954Z,76.04
2018-02-25T02:46:34.971Z,75.92
2018-02-25T02:48:06.076Z,76.00
2018-02-25T02:49:32.934Z,75.91
2018-02-25T02:50:59.875Z,75.75
2018-02-25T02:52:22.915Z,75.79
2018-02-25T02:53:49.659Z,75.93
2018-02-25T02:55:20.983Z,76.19
2018-02-25T02:56:47.914Z,75.85
2018-02-25T02:58:10.841Z,75.52
2018-02-25T02:59:41.580Z,76.25
2018-02-25T03:01:04.407Z,76.24
2018-02-25T03:02:36.341Z,75.86
2018-02-25T03:04:02.275Z,75.99
2018-02-25T03:05:25.433Z,75.59
2018-02-25T03:06:52.219Z,75.88
2018-02-25T03:08:23.072Z,76.00
2018-02-25T03:09:45.690Z,76.64
2018-02-25T03:11:12.640Z,76.27
2018-02-25T03:12:43.565Z,75.98
2018-02-25T03:14:06.268Z,75.85
2018-02-25T03:15:37.288Z,75.71
2018-02-25T03:17:04.224Z,75.76
2018-02-25T03:18:31.241Z,75.99
2018-02-25T03:19:58.074Z,75.80
2018-02-25T03:21:25.278Z,75.87
2018-02-25T03:22:52.173Z,76.17
2018-02-25T03:24:15.310Z,76.37
2018-02-25T03:25:46.367Z,76.38
2018-02-25T03:27:09.472Z,76.50
2018-02-25T03:28:36.479Z,76.52
2018-02-25T03:30:07.423Z,76.79
2018-02-25T03:31:30.263Z,76.96
2018-02-25T03:33:01.046Z,77.15
2018-02-25T03:34:27.858Z,77.23
2018-02-25T03:35:54.741Z,76.75
2018-02-25T03:37:21.779Z,76.34
2018-02-25T03:38:48.884Z,76.37
2018-02-25T03:40:15.610Z,75.78
2018-02-25T03:41:42.496Z,75.56
2018-02-25T03:43:09.404Z,75.46
2018-02-25T03:44:36.472Z,75.70
2018-02-25T03:46:03.375Z,76.14
2018-02-25T03:47:26.390Z,76.15
2018-02-25T03:48:57.315Z,75.84
2018-02-25T03:50:24.248Z,75.82
2018-02-25T03:51:51.056Z,75.75
2018-02-25T03:53:13.934Z,75.87
2018-02-25T03:54:44.858Z,75.97
2018-02-25T03:56:11.743Z,76.05
2018-02-25T03:57:38.650Z,75.82
2018-02-25T03:59:05.589Z,75.75
2018-02-25T04:00:32.454Z,75.58
2018-02-25T04:01:59.669Z,76.13
2018-02-25T04:03:22.761Z,76.70
2018-02-25T04:04:53.859Z,76.82
2018-02-25T04:06:20.918Z,76.87
2018-02-25T04:07:43.948Z,76.34
2018-02-25T04:09:14.911Z,76.10
2018-02-25T04:10:37.858Z,75.74
2018-02-25T04:12:04.908Z,76.11
2018-02-25T04:13:31.879Z,76.20
2018-02-25T04:14:58.427Z,75.77
2018-02-25T04:16:29.535Z,76.19
2018-02-25T04:17:52.575Z,76.21
2018-02-25T04:19:19.431Z,76.02
2018-02-25T04:20:50.447Z,76.48
2018-02-25T04:22:13.543Z,76.75
2018-02-25T04:23:40.482Z,76.80
2018-02-25T04:25:11.459Z,77.01
2018-02-25T04:26:34.388Z,77.02
2018-02-25T04:28:05.505Z,76.17
2018-02-25T04:29:28.322Z,75.75
2018-02-25T04:30:59.491Z,75.75
2018-02-25T04:32:26.276Z,76.26
2018-02-25T04:33:53.274Z,76.63
2018-02-25T04:35:16.244Z,77.30
2018-02-25T04:36:43.226Z,77.86
2018-02-25T04:38:14.239Z,78.17
2018-02-25T04:39:37.176Z,78.22
2018-02-25T04:41:08.083Z,78.09
2018-02-25T04:42:34.894Z,77.91
2018-02-25T04:44:01.853Z,78.44
2018-02-25T04:45:28.795Z,78.60
2018-02-25T04:46:51.916Z,78.64
2018-02-25T04:48:23.032Z,78.56
2018-02-25T04:49:50.218Z,78.40
2018-02-25T04:51:17.197Z,78.28
2018-02-25T04:52:44.188Z,78.15
2018-02-25T04:54:07.134Z,78.09
2018-02-25T04:55:37.995Z,78.36
2018-02-25T04:57:04.899Z,78.54
2018-02-25T04:58:31.647Z,78.51
2018-02-25T04:59:58.668Z,78.86
2018-02-25T05:01:25.565Z,79.18
2018-02-25T05:02:52.422Z,79.27
2018-02-25T05:04:19.478Z,78.94
2018-02-25T05:05:46.559Z,79.08
2018-02-25T05:07:13.585Z,78.77
2018-02-25T05:08:40.400Z,78.67
2018-02-25T05:10:07.389Z,78.69
2018-02-25T05:11:34.345Z,78.53
2018-02-25T05:13:00.977Z,78.37
2018-02-25T05:14:27.949Z,78.22
2018-02-25T05:15:51.021Z,78.18
2018-02-25T05:17:21.824Z,78.26
2018-02-25T05:18:44.877Z,78.16
2018-02-25T05:20:15.816Z,78.13
2018-02-25T05:21:42.862Z,78.00
2018-02-25T05:23:09.891Z,78.21
2018-02-25T05:24:36.922Z,78.34
2018-02-25T05:26:00.019Z,78.46
2018-02-25T05:27:30.899Z,78.82
2018-02-25T05:28:57.919Z,78.76
2018-02-25T05:30:24.847Z,78.53
2018-02-25T05:31:51.879Z,78.65
2018-02-25T05:33:14.717Z,78.91
2018-02-25T05:34:45.691Z,78.92
2018-02-25T05:36:12.614Z,78.84
2018-02-25T05:37:35.696Z,78.82
2018-02-25T05:39:02.682Z,78.85
2018-02-25T05:40:33.366Z,78.98
2018-02-25T05:41:56.438Z,78.81
2018-02-25T05:43:27.219Z,78.83
2018-02-25T05:44:54.117Z,78.80
2018-02-25T05:46:21.203Z,79.06
2018-02-25T05:47:48.289Z,78.99
2018-02-25T05:49:15.247Z,78.88
2018-02-25T05:50:46.288Z,78.73
2018-02-25T05:52:05.120Z,78.58
2018-02-25T05:53:36.031Z,78.58
2018-02-25T05:55:02.946Z,78.36
2018-02-25T05:56:25.863Z,78.37
2018-02-25T05:57:52.833Z,78.20
2018-02-25T05:59:23.646Z,78.13
2018-02-25T06:00:50.569Z,78.10
2018-02-25T06:02:17.591Z,78.11
2018-02-25T06:03:40.679Z,78.05
2018-02-25T06:05:11.724Z,78.15
2018-02-25T06:06:38.701Z,78.15
2018-02-25T06:08:01.444Z,78.50
2018-02-25T06:09:32.350Z,78.89
2018-02-25T06:10:59.565Z,78.93
2018-02-25T06:12:26.515Z,78.79
2018-02-25T06:13:53.460Z,78.60
2018-02-25T06:15:20.476Z,78.50
2018-02-25T06:16:47.578Z,78.34
2018-02-25T06:18:10.486Z,78.51
2018-02-25T06:19:37.383Z,78.66
2018-02-25T06:21:08.280Z,78.78
2018-02-25T06:22:38.184Z,78.55
2018-02-25T06:24:01.986Z,78.44
2018-02-25T06:25:25.023Z,78.42
2018-02-25T06:26:55.978Z,78.78
2018-02-25T06:28:19.033Z,78.90
2018-02-25T06:29:50.179Z,79.06
2018-02-25T06:31:17.345Z,79.28
2018-02-25T06:32:40.310Z,79.44
2018-02-25T06:34:11.241Z,79.60
2018-02-25T06:35:38.105Z,79.39
2018-02-25T06:37:04.989Z,79.39
2018-02-25T06:38:27.780Z,79.78
2018-02-25T06:39:54.852Z,80.18
2018-02-25T06:41:25.780Z,80.64
2018-02-25T06:42:48.656Z,80.96
2018-02-25T06:44:19.789Z,80.97
2018-02-25T06:45:46.868Z,80.97
2018-02-25T06:47:09.915Z,80.92
2018-02-25T06:48:40.728Z,81.10
2018-02-25T06:50:07.705Z,81.25
2018-02-25T06:51:30.720Z,81.59
2018-02-25T06:52:57.413Z,81.49
2018-02-25T06:54:24.519Z,82.20
2018-02-25T06:55:55.372Z,82.57
2018-02-25T06:57:22.456Z,82.54
2018-02-25T06:58:49.599Z,82.29
2018-02-25T07:00:16.515Z,82.29
2018-02-25T07:01:43.417Z,82.13
2018-02-25T07:03:06.149Z,81.76
2018-02-25T07:04:37.247Z,81.84
2018-02-25T07:06:04.111Z,81.96
2018-02-25T07:07:26.776Z,81.73
2018-02-25T07:08:57.975Z,81.71
2018-02-25T07:10:25.015Z,81.48
2018-02-25T07:11:47.935Z,81.36
2018-02-25T07:13:14.996Z,81.08
2018-02-25T07:14:42.040Z,82.15
2018-02-25T07:16:13.255Z,82.05
2018-02-25T07:17:40.101Z,81.97
2018-02-25T07:19:07.275Z,81.67
2018-02-25T07:20:34.539Z,81.44
2018-02-25T07:22:01.187Z,81.19
2018-02-25T07:23:28.257Z,81.10
2018-02-25T07:24:55.230Z,81.89
2018-02-25T07:26:22.311Z,82.04
2018-02-25T07:27:45.379Z,82.03
2018-02-25T07:29:12.435Z,81.99
2018-02-25T07:30:39.512Z,82.39
2018-02-25T07:32:10.515Z,82.88
2018-02-25T07:33:33.345Z,82.83
2018-02-25T07:35:04.250Z,83.33
2018-02-25T07:36:27.015Z,83.48
2018-02-25T07:37:58.116Z,83.75
2018-02-25T07:39:25.312Z,83.81
2018-02-25T07:40:52.425Z,83.98
2018-02-25T07:42:15.500Z,84.01
2018-02-25T07:43:46.491Z,84.39
2018-02-25T07:45:09.382Z,84.30
2018-02-25T07:46:36.439Z,84.28
2018-02-25T07:48:07.368Z,84.06
2018-02-25T07:49:34.127Z,83.86
2018-02-25T07:50:56.855Z,83.81
2018-02-25T07:52:27.881Z,84.15
2018-02-25T07:53:50.770Z,84.36
2018-02-25T07:55:21.701Z,83.93
2018-02-25T07:56:44.742Z,83.63
2018-02-25T07:58:11.946Z,84.20
2018-02-25T07:59:42.935Z,84.08
2018-02-25T08:01:05.928Z,84.17
2018-02-25T08:02:37.040Z,84.05
2018-02-25T08:04:04.005Z,84.22
2018-02-25T08:05:31.072Z,84.39
2018-02-25T08:06:58.048Z,84.64
2018-02-25T08:08:22.585Z,84.80
2018-02-25T08:09:52.081Z,84.75
2018-02-25T08:11:15.221Z,84.83
2018-02-25T08:12:46.286Z,85.00
2018-02-25T08:14:13.324Z,84.97
2018-02-25T08:15:36.434Z,84.55
2018-02-25T08:17:07.554Z,84.55
2018-02-25T08:18:34.638Z,84.61
2018-02-25T08:19:57.633Z,84.42
2018-02-25T08:21:28.515Z,84.24
2018-02-25T08:22:55.684Z,84.24
2018-02-25T08:24:18.713Z,84.56
2018-02-25T08:25:45.847Z,85.19
2018-02-25T08:27:12.885Z,85.22
2018-02-25T08:28:40.028Z,85.23
2018-02-25T08:30:11.007Z,85.40
2018-02-25T08:31:33.957Z,84.99
2018-02-25T08:33:01.073Z,85.10
2018-02-25T08:34:31.895Z,85.51
2018-02-25T08:35:58.940Z,85.73
2018-02-25T08:37:26.044Z,85.61
2018-02-25T08:38:53.044Z,85.61
2018-02-25T08:40:16.156Z,85.71
2018-02-25T08:41:43.186Z,85.97
2018-02-25T08:43:14.312Z,86.03
2018-02-25T08:44:41.209Z,85.81
2018-02-25T08:46:08.186Z,85.88
2018-02-25T08:47:35.203Z,85.93
2018-02-25T08:49:02.143Z,86.03
2018-02-25T08:50:25.128Z,86.24
2018-02-25T08:51:57.149Z,86.44
2018-02-25T08:53:23.077Z,85.85
2018-02-25T08:54:50.099Z,86.03
2018-02-25T08:56:17.117Z,85.84
2018-02-25T08:57:43.967Z,86.06
2018-02-25T08:59:11.106Z,86.31
2018-02-25T09:00:38.217Z,86.63
2018-02-25T09:02:01.412Z,87.16
2018-02-25T09:03:28.369Z,86.67
2018-02-25T09:04:59.439Z,86.76
2018-02-25T09:06:26.274Z,86.54
2018-02-25T09:07:49.366Z,86.77
2018-02-25T09:09:16.408Z,86.45
2018-02-25T09:10:43.593Z,87.02
2018-02-25T09:12:10.573Z,87.22
2018-02-25T09:13:41.554Z,87.72
2018-02-25T09:15:08.604Z,88.08
2018-02-25T09:16:35.643Z,87.88
2018-02-25T09:17:58.704Z,87.92
2018-02-25T09:19:25.683Z,87.61
2018-02-25T09:20:56.761Z,87.16
2018-02-25T09:22:23.895Z,87.14
2018-02-25T09:23:47.021Z,87.25
2018-02-25T09:25:13.994Z,87.64
2018-02-25T09:26:41.077Z,86.84
2018-02-25T09:28:08.256Z,86.79
2018-02-25T09:29:39.050Z,86.62
2018-02-25T09:31:06.031Z,86.94
2018-02-25T09:32:32.886Z,87.06
2018-02-25T09:33:55.969Z,87.10
2018-02-25T09:35:26.989Z,87.54
2018-02-25T09:36:50.170Z,86.99
2018-02-25T09:38:17.410Z,86.91
2018-02-25T09:39:44.423Z,87.37
2018-02-25T09:41:15.543Z,87.11
2018-02-25T09:42:42.495Z,87.38
2018-02-25T09:44:09.539Z,87.62
2018-02-25T09:45:36.435Z,88.04
2018-02-25T09:47:03.373Z,88.00
2018-02-25T09:48:30.286Z,88.42
2018-02-25T09:49:57.164Z,88.63
2018-02-25T09:51:24.184Z,89.01
2018-02-25T09:52:51.122Z,88.97
2018-02-25T09:54:18.242Z,89.04
2018-02-25T09:55:45.109Z,89.02
2018-02-25T09:57:12.104Z,88.96
2018-02-25T09:58:39.098Z,88.99
2018-02-25T10:00:06.136Z,89.06
2018-02-25T10:01:33.026Z,88.74
2018-02-25T10:02:55.935Z,89.18
2018-02-25T10:04:27.100Z,89.07
2018-02-25T10:05:54.126Z,88.94
2018-02-25T10:07:21.113Z,88.71
2018-02-25T10:08:44.231Z,88.53
2018-02-25T10:10:15.260Z,88.53
2018-02-25T10:11:42.167Z,88.34
2018-02-25T10:13:08.999Z,88.36
2018-02-25T10:14:35.809Z,87.88
2018-02-25T10:16:02.766Z,88.00
2018-02-25T10:17:25.650Z,88.19
2018-02-25T10:18:56.726Z,88.17
2018-02-25T10:20:19.744Z,86.75
2018-02-25T10:21:50.683Z,86.22
2018-02-25T10:23:17.696Z,85.69
2018-02-25T10:24:44.729Z,85.19
2018-02-25T10:26:11.863Z,85.65
2018-02-25T10:27:38.830Z,86.12
2018-02-25T10:29:05.833Z,86.02
2018-02-25T10:30:28.764Z,86.59
2018-02-25T10:31:59.544Z,87.37
2018-02-25T10:33:26.437Z,88.05
2018-02-25T10:34:49.454Z,88.01
2018-02-25T10:36:20.556Z,87.24
2018-02-25T10:37:47.714Z,86.92
2018-02-25T10:39:14.752Z,87.15
2018-02-25T10:40:41.706Z,86.67
2018-02-25T10:42:08.731Z,84.36
2018-02-25T10:43:35.592Z,84.71
2018-02-25T10:44:58.361Z,84.44
2018-02-25T10:46:25.228Z,84.17
2018-02-25T10:47:52.150Z,83.74
2018-02-25T10:49:23.242Z,83.30
2018-02-25T10:50:46.366Z,83.34
2018-02-25T10:52:13.500Z,83.40
2018-02-25T10:53:40.430Z,83.73
2018-02-25T10:55:11.427Z,83.50
2018-02-25T10:56:38.663Z,83.34
2018-02-25T10:58:01.557Z,83.59
2018-02-25T10:59:32.259Z,83.53
2018-02-25T11:00:55.359Z,83.50
2018-02-25T11:02:22.147Z,83.20
2018-02-25T11:03:52.961Z,82.95
2018-02-25T11:05:19.696Z,82.33
2018-02-25T11:06:46.840Z,81.96
2018-02-25T11:08:13.821Z,81.98
2018-02-25T11:09:40.697Z,81.20
2018-02-25T11:11:07.387Z,80.80
2018-02-25T11:12:34.434Z,81.13
2018-02-25T11:14:01.273Z,80.55
2018-02-25T11:15:24.539Z,79.84
2018-02-25T11:16:55.800Z,79.13
2018-02-25T11:18:18.700Z,79.94
2018-02-25T11:19:45.765Z,79.91
2018-02-25T11:21:12.816Z,79.99
2018-02-25T11:22:39.765Z,79.39
2018-02-25T11:24:06.844Z,80.22
2018-02-25T11:25:37.799Z,79.96
2018-02-25T11:27:04.808Z,80.13
2018-02-25T11:28:31.665Z,79.83
2018-02-25T11:29:58.735Z,79.67
2018-02-25T11:31:21.824Z,79.73
2018-02-25T11:32:52.850Z,80.08
2018-02-25T11:34:15.857Z,79.80
2018-02-25T11:35:46.747Z,79.91
2018-02-25T11:37:10.020Z,79.86
2018-02-25T11:38:37.237Z,80.60
2018-02-25T11:40:04.080Z,80.33
2018-02-25T11:41:34.782Z,80.28
2018-02-25T11:42:57.735Z,80.64
2018-02-25T11:44:28.820Z,81.25
2018-02-25T11:45:51.853Z,81.94
2018-02-25T11:47:22.864Z,82.20
2018-02-25T11:48:45.653Z,81.95
2018-02-25T11:50:16.780Z,82.31
2018-02-25T11:51:39.827Z,81.83
2018-02-25T11:53:10.950Z,81.92
2018-02-25T11:54:37.820Z,81.92
2018-02-25T11:56:00.757Z,82.75
2018-02-25T11:57:31.402Z,82.71
2018-02-25T11:58:54.257Z,82.75
2018-02-25T12:00:25.310Z,82.82
2018-02-25T12:01:52.369Z,82.46
2018-02-25T12:03:19.375Z,82.47
2018-02-25T12:04:46.437Z,82.43
2018-02-25T12:06:13.429Z,82.55
2018-02-25T12:07:40.445Z,82.50
2018-02-25T12:09:03.537Z,82.46
2018-02-25T12:10:34.453Z,82.33
2018-02-25T12:12:01.345Z,82.38
2018-02-25T12:13:24.330Z,82.71
2018-02-25T12:14:59.278Z,81.02
2018-02-25T12:16:22.246Z,79.79
2018-02-25T12:17:45.490Z,79.86
2018-02-25T12:19:16.622Z,80.68
2018-02-25T12:20:39.689Z,81.21
2018-02-25T12:22:10.733Z,81.00
2018-02-25T12:23:37.776Z,80.52
2018-02-25T12:25:00.866Z,80.82
2018-02-25T12:26:31.763Z,80.94
2018-02-25T12:27:58.868Z,80.11
2018-02-25T12:29:22.084Z,80.17
2018-02-25T12:30:49.237Z,79.73
2018-02-25T12:32:16.249Z,79.41
2018-02-25T12:33:47.246Z,79.22
2018-02-25T12:35:14.173Z,79.12
2018-02-25T12:36:37.154Z,78.80
2018-02-25T12:38:04.176Z,78.55
2018-02-25T12:39:30.941Z,78.13
2018-02-25T12:41:01.817Z,77.94
2018-02-25T12:42:24.962Z,77.63
2018-02-25T12:43:51.949Z,77.69
2018-02-25T12:45:23.146Z,77.00
2018-02-25T12:46:50.094Z,77.10
2018-02-25T12:48:13.204Z,77.21
2018-02-25T12:49:40.230Z,76.97
2018-02-25T12:51:07.301Z,76.87
2018-02-25T12:52:34.202Z,77.22
2018-02-25T12:54:05.225Z,77.09
2018-02-25T12:55:31.978Z,77.71
2018-02-25T12:56:59.233Z,78.94
2018-02-25T12:58:22.301Z,78.26
2018-02-25T12:59:53.414Z,78.83
2018-02-25T13:01:16.695Z,78.07
2018-02-25T13:02:47.771Z,78.72
2018-02-25T13:04:14.809Z,78.80
2018-02-25T13:05:41.799Z,79.06
2018-02-25T13:07:08.713Z,78.85
2018-02-25T13:08:35.945Z,78.99
2018-02-25T13:10:02.996Z,79.25
2018-02-25T13:11:26.224Z,79.22
2018-02-25T13:12:53.317Z,79.21
2018-02-25T13:14:24.161Z,79.36
2018-02-25T13:15:51.224Z,79.68
2018-02-25T13:17:18.242Z,79.84
2018-02-25T13:18:45.279Z,80.24
2018-02-25T13:20:12.300Z,80.33
2018-02-25T13:21:39.331Z,80.18
2018-02-25T13:23:06.767Z,79.78
2018-02-25T13:24:29.730Z,79.61
2018-02-25T13:25:56.931Z,79.43
2018-02-25T13:27:27.980Z,79.92
2018-02-25T13:28:55.112Z,79.54
2018-02-25T13:30:18.195Z,78.55
2018-02-25T13:31:49.153Z,78.85
2018-02-25T13:33:16.100Z,78.00
2018-02-25T13:34:39.019Z,77.87
2018-02-25T13:36:06.005Z,77.46
2018-02-25T13:37:37.077Z,77.80
2018-02-25T13:39:03.912Z,77.89
2018-02-25T13:40:26.978Z,78.14
2018-02-25T13:41:54.157Z,77.48
2018-02-25T13:43:21.183Z,76.84
2018-02-25T13:44:48.282Z,76.01
2018-02-25T13:46:19.386Z,75.75
2018-02-25T13:47:46.378Z,75.56
2018-02-25T13:49:13.327Z,74.75
2018-02-25T13:50:36.480Z,74.98
2018-02-25T13:52:07.553Z,74.68
2018-02-25T13:53:34.666Z,74.50
2018-02-25T13:55:01.524Z,74.33
2018-02-25T13:56:28.607Z,74.01
2018-02-25T13:57:51.694Z,74.09
2018-02-25T13:59:18.718Z,74.50
2018-02-25T14:00:49.778Z,74.53
2018-02-25T14:02:16.955Z,74.25
2018-02-25T14:03:43.894Z,73.61
2018-02-25T14:05:07.049Z,73.22
2018-02-25T14:06:34.130Z,73.03
2018-02-25T14:08:04.936Z,72.77
2018-02-25T14:09:27.919Z,72.99
2018-02-25T14:10:59.010Z,72.65
2018-02-25T14:12:22.217Z,72.71
2018-02-25T14:13:49.135Z,72.91
2018-02-25T14:15:16.218Z,72.40
2018-02-25T14:16:43.479Z,72.29
2018-02-25T14:18:14.496Z,72.45
2018-02-25T14:19:41.649Z,71.51
2018-02-25T14:21:04.537Z,72.23
2018-02-25T14:22:35.322Z,71.54
2018-02-25T14:24:03.391Z,71.39
2018-02-25T14:25:29.257Z,71.66
2018-02-25T14:26:52.495Z,70.76
2018-02-25T14:28:19.541Z,71.20
2018-02-25T14:29:50.589Z,71.51
2018-02-25T14:31:17.651Z,71.35
2018-02-25T14:32:40.737Z,71.39
2018-02-25T14:34:07.737Z,70.98
2018-02-25T14:35:38.746Z,70.59
2018-02-25T14:37:01.753Z,71.14
2018-02-25T14:38:32.722Z,71.45
2018-02-25T14:39:55.684Z,71.35
2018-02-25T14:41:22.791Z,71.70
2018-02-25T14:42:53.699Z,72.19
2018-02-25T14:44:20.805Z,72.43
2018-02-25T14:45:48.102Z,72.60
2018-02-25T14:47:15.015Z,72.75
2018-02-25T14:48:38.321Z,72.65
2018-02-25T14:50:09.242Z,72.90
2018-02-25T14:51:36.312Z,72.67
2018-02-25T14:52:59.193Z,73.37
2018-02-25T14:54:26.011Z,73.11
2018-02-25T14:55:57.190Z,72.80
2018-02-25T14:57:20.504Z,73.11
2018-02-25T14:58:51.132Z,72.44
2018-02-25T15:00:14.401Z,71.95
2018-02-25T15:01:41.399Z,72.33
2018-02-25T15:03:12.539Z,72.58
2018-02-25T15:04:35.612Z,73.00
2018-02-25T15:06:06.720Z,72.45
2018-02-25T15:07:33.839Z,72.31
2018-02-25T15:09:00.828Z,72.51
2018-02-25T15:10:27.853Z,71.81
2018-02-25T15:11:55.112Z,71.82
2018-02-25T15:13:18.303Z,72.15
2018-02-25T15:14:45.256Z,72.15
2018-02-25T15:16:12.163Z,72.22
2018-02-25T15:17:39.172Z,72.68
2018-02-25T15:19:10.043Z,72.83
2018-02-25T15:20:36.985Z,73.12
2018-02-25T15:21:59.939Z,73.29
2018-02-25T15:23:26.839Z,73.57
2018-02-25T15:24:57.775Z,73.71
2018-02-25T15:26:24.919Z,73.40
2018-02-25T15:27:52.089Z,73.19
2018-02-25T15:29:15.318Z,73.24
2018-02-25T15:30:46.344Z,73.24
2018-02-25T15:32:09.285Z,73.14
2018-02-25T15:33:40.199Z,72.83
2018-02-25T15:35:07.178Z,72.86
2018-02-25T15:36:30.192Z,72.68
2018-02-25T15:38:00.882Z,71.94
2018-02-25T15:39:27.963Z,71.72
2018-02-25T15:40:54.648Z,71.97
2018-02-25T15:42:17.681Z,72.17
2018-02-25T15:43:48.788Z,72.37
2018-02-25T15:45:11.751Z,72.05
2018-02-25T15:46:42.575Z,72.02
2018-02-25T15:48:09.547Z,72.31
2018-02-25T15:49:32.578Z,72.78
2018-02-25T15:51:03.566Z,72.70
2018-02-25T15:52:30.558Z,73.54
2018-02-25T15:53:57.462Z,73.29
2018-02-25T15:55:24.708Z,72.70
2018-02-25T15:56:47.829Z,72.86
2018-02-25T15:58:18.749Z,72.91
2018-02-25T15:59:45.825Z,72.63
2018-02-25T16:01:12.709Z,72.67
2018-02-25T16:02:35.618Z,72.88
2018-02-25T16:04:06.335Z,72.89
2018-02-25T16:05:33.058Z,73.30
2018-02-25T16:07:00.242Z,73.38
2018-02-25T16:08:27.236Z,73.13
2018-02-25T16:09:54.221Z,73.03
2018-02-25T16:11:17.317Z,73.09
2018-02-25T16:12:48.288Z,73.04
2018-02-25T16:14:15.467Z,73.20
2018-02-25T16:15:42.534Z,73.22
2018-02-25T16:17:09.375Z,73.03
2018-02-25T16:18:36.475Z,72.91
2018-02-25T16:19:59.536Z,72.89
2018-02-25T16:21:30.622Z,73.09
2018-02-25T16:22:57.662Z,73.07
2018-02-25T16:24:24.657Z,73.07
2018-02-25T16:25:51.787Z,73.08
2018-02-25T16:27:18.801Z,73.28
2018-02-25T16:28:45.658Z,73.55
2018-02-25T16:30:12.460Z,73.53
2018-02-25T16:31:35.430Z,73.46
2018-02-25T16:33:06.490Z,73.36
2018-02-25T16:34:29.238Z,73.55
2018-02-25T16:36:00.589Z,73.46
2018-02-25T16:37:27.548Z,73.63
2018-02-25T16:38:54.569Z,73.78
2018-02-25T16:40:21.601Z,73.85
2018-02-25T16:41:44.589Z,73.80
2018-02-25T16:43:11.680Z,74.05
2018-02-25T16:44:42.398Z,74.04
2018-02-25T16:46:09.433Z,74.21
2018-02-25T16:47:36.393Z,74.28
2018-02-25T16:49:03.149Z,74.11
2018-02-25T16:50:30.090Z,74.23
2018-02-25T16:51:57.196Z,73.91
2018-02-25T16:53:20.312Z,74.17
2018-02-25T16:54:51.378Z,74.59
2018-02-25T16:56:18.570Z,74.65
2018-02-25T16:57:45.615Z,74.60
2018-02-25T16:59:08.551Z,75.11
2018-02-25T17:00:39.751Z,74.82
2018-02-25T17:02:06.714Z,74.77
2018-02-25T17:03:33.717Z,74.72
2018-02-25T17:05:00.756Z,74.83
2018-02-25T17:06:23.819Z,74.60
2018-02-25T17:07:54.918Z,75.13
2018-02-25T17:09:17.885Z,74.99
2018-02-25T17:10:48.640Z,75.26
2018-02-25T17:12:15.853Z,75.11
2018-02-25T17:13:38.610Z,75.08
2018-02-25T17:15:09.500Z,75.06
2018-02-25T17:16:36.613Z,75.24
2018-02-25T17:17:59.261Z,75.62
2018-02-25T17:19:30.420Z,76.80
2018-02-25T17:20:53.319Z,77.28
2018-02-25T17:22:19.956Z,78.27
2018-02-25T17:23:50.934Z,79.02
2018-02-25T17:25:17.870Z,79.61
2018-02-25T17:26:44.728Z,80.17
2018-02-25T17:28:11.814Z,80.45
2018-02-25T17:29:38.811Z,80.53
2018-02-25T17:31:05.968Z,80.80
2018-02-25T17:32:32.950Z,80.75
2018-02-25T17:33:56.032Z,80.57
2018-02-25T17:35:26.886Z,80.46
2018-02-25T17:36:50.313Z,80.27
2018-02-25T17:38:21.170Z,80.15
2018-02-25T17:39:44.117Z,79.91
2018-02-25T17:41:14.985Z,79.68
2018-02-25T17:42:41.802Z,79.44
2018-02-25T17:44:08.668Z,79.47
2018-02-25T17:45:35.503Z,79.47
2018-02-25T17:47:02.339Z,79.47
2018-02-25T17:48:29.259Z,79.72
2018-02-25T17:49:52.265Z,79.96
2018-02-25T17:51:23.173Z,80.34
2018-02-25T17:52:46.078Z,80.38
2018-02-25T17:54:17.190Z,80.35
2018-02-25T17:55:44.390Z,80.17
2018-02-25T17:57:11.275Z,80.20
2018-02-25T17:58:38.432Z,80.35
2018-02-25T18:00:05.435Z,80.56
2018-02-25T18:01:32.401Z,80.55
2018-02-25T18:02:59.332Z,80.56
2018-02-25T18:04:26.201Z,80.36
2018-02-25T18:05:49.297Z,80.56
2018-02-25T18:07:20.187Z,80.74
2018-02-25T18:08:47.194Z,80.68
2018-02-25T18:10:09.964Z,80.91
2018-02-25T18:11:40.816Z,80.73
2018-02-25T18:13:07.923Z,80.98
2018-02-25T18:14:34.828Z,81.09
2018-02-25T18:16:01.590Z,81.57
2018-02-25T18:17:28.609Z,81.56
2018-02-25T18:18:55.759Z,81.64
2018-02-25T18:20:18.632Z,81.69
2018-02-25T18:21:45.705Z,82.05
2018-02-25T18:23:16.503Z,82.25
2018-02-25T18:24:39.510Z,82.78
2018-02-25T18:26:06.662Z,82.88
2018-02-25T18:27:33.720Z,83.45
2018-02-25T18:29:04.490Z,83.69
2018-02-25T18:30:31.250Z,84.01
2018-02-25T18:31:58.031Z,84.08
2018-02-25T18:33:25.054Z,84.12
2018-02-25T18:34:48.131Z,84.18
2018-02-25T18:36:19.004Z,84.48
2018-02-25T18:37:45.777Z,84.70
2018-02-25T18:39:12.570Z,84.53
2018-02-25T18:40:39.600Z,84.67
2018-02-25T18:42:02.460Z,84.61